sensor_id;sensor_type;location;lat;lon;timestamp;P1;durP1;ratioP1;P2;durP2;ratioP2
8564;SDS011;4320;51.498;6.556;2022-10-31T00:01:53;15.07;;;8.30;;
8564;SDS011;4320;51.498;6.556;2022-10-31T00:04:19;13.43;;;8.63;;
8564;SDS011;4320;51.498;6.556;2022-10-31T00:06:44;18.05;;;8.70;;
8564;SDS011;4320;51.498;6.556;2022-10-31T00:09:10;11.85;;;7.70;;
8564;SDS011;4320;51.498;6.556;2022-10-31T00:11:36;16.33;;;8.07;;
8564;SDS011;4320;51.498;6.556;2022-10-31T00:14:02;11.57;;;7.88;;
8564;SDS011;4320;51.498;6.556;2022-10-31T00:16:28;15.40;;;8.48;;
8564;SDS011;4320;51.498;6.556;2022-10-31T00:18:56;17.60;;;8.93;;
8564;SDS011;4320;51.498;6.556;2022-10-31T00:21:24;15.55;;;8.30;;
8564;SDS011;4320;51.498;6.556;2022-10-31T00:23:49;12.02;;;7.65;;
8564;SDS011;4320;51.498;6.556;2022-10-31T00:26:15;11.13;;;7.78;;
8564;SDS011;4320;51.498;6.556;2022-10-31T00:28:41;14.82;;;8.85;;
8564;SDS011;4320;51.498;6.556;2022-10-31T00:31:11;13.18;;;8.32;;
8564;SDS011;4320;51.498;6.556;2022-10-31T00:33:38;15.02;;;8.32;;
8564;SDS011;4320;51.498;6.556;2022-10-31T00:36:05;17.55;;;8.98;;
8564;SDS011;4320;51.498;6.556;2022-10-31T00:38:34;13.07;;;7.63;;
8564;SDS011;4320;51.498;6.556;2022-10-31T00:40:59;14.85;;;7.43;;
8564;SDS011;4320;51.498;6.556;2022-10-31T00:43:25;16.08;;;8.70;;
8564;SDS011;4320;51.498;6.556;2022-10-31T00:45:51;11.57;;;7.53;;
8564;SDS011;4320;51.498;6.556;2022-10-31T00:48:16;15.70;;;8.80;;
8564;SDS011;4320;51.498;6.556;2022-10-31T00:50:42;19.33;;;8.25;;
8564;SDS011;4320;51.498;6.556;2022-10-31T00:53:07;13.40;;;8.15;;
8564;SDS011;4320;51.498;6.556;2022-10-31T00:55:33;11.38;;;7.88;;
8564;SDS011;4320;51.498;6.556;2022-10-31T00:57:59;15.68;;;8.40;;
8564;SDS011;4320;51.498;6.556;2022-10-31T01:00:25;15.23;;;8.95;;
8564;SDS011;4320;51.498;6.556;2022-10-31T01:02:51;12.18;;;8.50;;
8564;SDS011;4320;51.498;6.556;2022-10-31T01:05:16;15.80;;;8.45;;
8564;SDS011;4320;51.498;6.556;2022-10-31T01:07:42;17.25;;;8.63;;
8564;SDS011;4320;51.498;6.556;2022-10-31T01:10:08;13.90;;;8.07;;
8564;SDS011;4320;51.498;6.556;2022-10-31T01:12:38;12.15;;;8.57;;
8564;SDS011;4320;51.498;6.556;2022-10-31T01:15:05;14.10;;;7.82;;
8564;SDS011;4320;51.498;6.556;2022-10-31T01:17:32;12.52;;;8.27;;
8564;SDS011;4320;51.498;6.556;2022-10-31T01:19:57;16.58;;;9.38;;
8564;SDS011;4320;51.498;6.556;2022-10-31T01:22:23;12.75;;;9.25;;
8564;SDS011;4320;51.498;6.556;2022-10-31T01:24:49;15.38;;;8.80;;
8564;SDS011;4320;51.498;6.556;2022-10-31T01:27:14;16.30;;;9.40;;
8564;SDS011;4320;51.498;6.556;2022-10-31T01:29:40;20.42;;;9.75;;
8564;SDS011;4320;51.498;6.556;2022-10-31T01:32:06;18.52;;;9.50;;
8564;SDS011;4320;51.498;6.556;2022-10-31T01:34:31;14.23;;;9.15;;
8564;SDS011;4320;51.498;6.556;2022-10-31T01:36:57;15.98;;;9.55;;
8564;SDS011;4320;51.498;6.556;2022-10-31T01:39:22;18.75;;;10.30;;
8564;SDS011;4320;51.498;6.556;2022-10-31T01:41:49;16.70;;;10.18;;
8564;SDS011;4320;51.498;6.556;2022-10-31T01:46:58;16.00;;;10.05;;
8564;SDS011;4320;51.498;6.556;2022-10-31T01:52:04;17.23;;;10.43;;
8564;SDS011;4320;51.498;6.556;2022-10-31T01:54:40;16.48;;;9.32;;
8564;SDS011;4320;51.498;6.556;2022-10-31T01:57:10;14.48;;;9.45;;
8564;SDS011;4320;51.498;6.556;2022-10-31T01:59:41;15.77;;;9.73;;
8564;SDS011;4320;51.498;6.556;2022-10-31T02:02:11;19.65;;;9.95;;
8564;SDS011;4320;51.498;6.556;2022-10-31T02:04:38;16.25;;;10.25;;
8564;SDS011;4320;51.498;6.556;2022-10-31T02:07:08;20.13;;;10.65;;
8564;SDS011;4320;51.498;6.556;2022-10-31T02:09:38;17.75;;;11.57;;
8564;SDS011;4320;51.498;6.556;2022-10-31T02:12:05;14.25;;;10.02;;
8564;SDS011;4320;51.498;6.556;2022-10-31T02:14:34;13.85;;;9.70;;
8564;SDS011;4320;51.498;6.556;2022-10-31T02:17:01;17.63;;;10.20;;
8564;SDS011;4320;51.498;6.556;2022-10-31T02:22:21;15.50;;;10.38;;
8564;SDS011;4320;51.498;6.556;2022-10-31T02:25:03;17.20;;;9.60;;
8564;SDS011;4320;51.498;6.556;2022-10-31T02:28:05;19.25;;;9.88;;
8564;SDS011;4320;51.498;6.556;2022-10-31T02:31:00;17.23;;;9.85;;
8564;SDS011;4320;51.498;6.556;2022-10-31T02:33:33;14.82;;;9.02;;
8564;SDS011;4320;51.498;6.556;2022-10-31T02:41:18;16.98;;;9.65;;
8564;SDS011;4320;51.498;6.556;2022-10-31T02:44:15;17.65;;;11.02;;
8564;SDS011;4320;51.498;6.556;2022-10-31T02:46:47;17.23;;;9.35;;
8564;SDS011;4320;51.498;6.556;2022-10-31T02:49:39;17.20;;;10.07;;
8564;SDS011;4320;51.498;6.556;2022-10-31T02:52:12;17.15;;;9.80;;
8564;SDS011;4320;51.498;6.556;2022-10-31T02:54:58;15.07;;;9.25;;
8564;SDS011;4320;51.498;6.556;2022-10-31T02:57:34;13.35;;;9.45;;
8564;SDS011;4320;51.498;6.556;2022-10-31T03:00:03;18.02;;;10.75;;
8564;SDS011;4320;51.498;6.556;2022-10-31T03:02:44;18.90;;;10.90;;
8564;SDS011;4320;51.498;6.556;2022-10-31T03:11:06;16.42;;;10.38;;
8564;SDS011;4320;51.498;6.556;2022-10-31T03:16:27;16.23;;;9.68;;
8564;SDS011;4320;51.498;6.556;2022-10-31T03:18:57;16.13;;;10.55;;
8564;SDS011;4320;51.498;6.556;2022-10-31T03:21:44;17.13;;;11.13;;
8564;SDS011;4320;51.498;6.556;2022-10-31T03:24:31;17.48;;;10.48;;
8564;SDS011;4320;51.498;6.556;2022-10-31T03:27:00;19.75;;;10.77;;
8564;SDS011;4320;51.498;6.556;2022-10-31T03:29:28;19.17;;;9.93;;
8564;SDS011;4320;51.498;6.556;2022-10-31T03:32:02;19.85;;;10.68;;
8564;SDS011;4320;51.498;6.556;2022-10-31T03:34:29;17.15;;;11.23;;
8564;SDS011;4320;51.498;6.556;2022-10-31T03:36:57;17.33;;;11.85;;
8564;SDS011;4320;51.498;6.556;2022-10-31T03:39:26;18.17;;;11.13;;
8564;SDS011;4320;51.498;6.556;2022-10-31T03:41:54;19.88;;;10.82;;
8564;SDS011;4320;51.498;6.556;2022-10-31T03:44:29;19.48;;;10.98;;
8564;SDS011;4320;51.498;6.556;2022-10-31T03:46:57;15.63;;;10.77;;
8564;SDS011;4320;51.498;6.556;2022-10-31T03:49:23;18.38;;;10.07;;
8564;SDS011;4320;51.498;6.556;2022-10-31T03:51:57;21.45;;;11.68;;
8564;SDS011;4320;51.498;6.556;2022-10-31T03:54:48;16.05;;;10.90;;
8564;SDS011;4320;51.498;6.556;2022-10-31T04:00:03;19.88;;;11.05;;
8564;SDS011;4320;51.498;6.556;2022-10-31T04:02:38;24.33;;;12.10;;
8564;SDS011;4320;51.498;6.556;2022-10-31T04:05:15;17.67;;;11.15;;
8564;SDS011;4320;51.498;6.556;2022-10-31T04:07:42;23.75;;;12.38;;
8564;SDS011;4320;51.498;6.556;2022-10-31T04:10:12;23.50;;;13.05;;
8564;SDS011;4320;51.498;6.556;2022-10-31T04:12:39;23.02;;;12.55;;
8564;SDS011;4320;51.498;6.556;2022-10-31T04:15:10;19.58;;;12.70;;
8564;SDS011;4320;51.498;6.556;2022-10-31T04:17:39;17.35;;;12.35;;
8564;SDS011;4320;51.498;6.556;2022-10-31T04:20:07;18.85;;;12.20;;
8564;SDS011;4320;51.498;6.556;2022-10-31T04:22:33;24.08;;;12.07;;
8564;SDS011;4320;51.498;6.556;2022-10-31T04:24:58;21.23;;;12.45;;
8564;SDS011;4320;51.498;6.556;2022-10-31T04:27:24;24.58;;;13.32;;
8564;SDS011;4320;51.498;6.556;2022-10-31T04:29:49;23.52;;;13.10;;
8564;SDS011;4320;51.498;6.556;2022-10-31T04:32:15;21.60;;;12.90;;
8564;SDS011;4320;51.498;6.556;2022-10-31T04:34:40;19.42;;;13.02;;
8564;SDS011;4320;51.498;6.556;2022-10-31T04:37:06;22.65;;;13.15;;
8564;SDS011;4320;51.498;6.556;2022-10-31T04:39:32;21.75;;;12.30;;
8564;SDS011;4320;51.498;6.556;2022-10-31T04:41:57;25.40;;;12.10;;
8564;SDS011;4320;51.498;6.556;2022-10-31T04:44:23;20.73;;;12.77;;
8564;SDS011;4320;51.498;6.556;2022-10-31T04:46:48;20.27;;;12.93;;
8564;SDS011;4320;51.498;6.556;2022-10-31T04:49:14;20.27;;;11.73;;
8564;SDS011;4320;51.498;6.556;2022-10-31T04:51:40;19.80;;;12.50;;
8564;SDS011;4320;51.498;6.556;2022-10-31T04:54:05;23.45;;;12.73;;
8564;SDS011;4320;51.498;6.556;2022-10-31T04:56:31;22.63;;;12.50;;
8564;SDS011;4320;51.498;6.556;2022-10-31T04:58:57;24.17;;;13.50;;
8564;SDS011;4320;51.498;6.556;2022-10-31T05:01:22;22.30;;;12.95;;
8564;SDS011;4320;51.498;6.556;2022-10-31T05:03:48;21.05;;;12.82;;
8564;SDS011;4320;51.498;6.556;2022-10-31T05:06:14;22.58;;;11.93;;
8564;SDS011;4320;51.498;6.556;2022-10-31T05:08:41;21.45;;;12.70;;
8564;SDS011;4320;51.498;6.556;2022-10-31T05:11:07;20.05;;;11.52;;
8564;SDS011;4320;51.498;6.556;2022-10-31T05:13:32;20.50;;;12.38;;
8564;SDS011;4320;51.498;6.556;2022-10-31T05:15:58;20.63;;;11.82;;
8564;SDS011;4320;51.498;6.556;2022-10-31T05:18:23;21.80;;;12.48;;
8564;SDS011;4320;51.498;6.556;2022-10-31T05:20:49;22.02;;;11.48;;
8564;SDS011;4320;51.498;6.556;2022-10-31T05:23:15;20.17;;;11.63;;
8564;SDS011;4320;51.498;6.556;2022-10-31T05:25:40;19.80;;;11.35;;
8564;SDS011;4320;51.498;6.556;2022-10-31T05:28:06;22.08;;;11.82;;
8564;SDS011;4320;51.498;6.556;2022-10-31T05:30:33;21.48;;;11.63;;
8564;SDS011;4320;51.498;6.556;2022-10-31T05:32:59;19.27;;;11.25;;
8564;SDS011;4320;51.498;6.556;2022-10-31T05:35:26;23.52;;;11.55;;
8564;SDS011;4320;51.498;6.556;2022-10-31T05:37:53;20.27;;;12.02;;
8564;SDS011;4320;51.498;6.556;2022-10-31T05:40:19;17.77;;;11.65;;
8564;SDS011;4320;51.498;6.556;2022-10-31T05:42:46;17.92;;;11.65;;
8564;SDS011;4320;51.498;6.556;2022-10-31T05:45:14;18.02;;;11.85;;
8564;SDS011;4320;51.498;6.556;2022-10-31T05:47:41;18.63;;;11.20;;
8564;SDS011;4320;51.498;6.556;2022-10-31T05:50:07;17.15;;;11.00;;
8564;SDS011;4320;51.498;6.556;2022-10-31T05:52:33;19.65;;;13.73;;
8564;SDS011;4320;51.498;6.556;2022-10-31T05:54:59;17.35;;;11.65;;
8564;SDS011;4320;51.498;6.556;2022-10-31T05:57:25;17.92;;;11.95;;
8564;SDS011;4320;51.498;6.556;2022-10-31T05:59:50;21.60;;;11.63;;
8564;SDS011;4320;51.498;6.556;2022-10-31T06:02:19;19.40;;;11.57;;
8564;SDS011;4320;51.498;6.556;2022-10-31T06:04:45;20.35;;;11.10;;
8564;SDS011;4320;51.498;6.556;2022-10-31T06:07:11;19.42;;;11.27;;
8564;SDS011;4320;51.498;6.556;2022-10-31T06:09:36;18.25;;;10.80;;
8564;SDS011;4320;51.498;6.556;2022-10-31T06:12:02;21.63;;;12.13;;
8564;SDS011;4320;51.498;6.556;2022-10-31T06:14:28;18.27;;;11.02;;
8564;SDS011;4320;51.498;6.556;2022-10-31T06:16:54;20.40;;;11.18;;
8564;SDS011;4320;51.498;6.556;2022-10-31T06:19:20;16.27;;;11.32;;
8564;SDS011;4320;51.498;6.556;2022-10-31T06:21:46;22.25;;;11.90;;
8564;SDS011;4320;51.498;6.556;2022-10-31T06:24:11;17.17;;;10.32;;
8564;SDS011;4320;51.498;6.556;2022-10-31T06:26:37;17.08;;;11.25;;
8564;SDS011;4320;51.498;6.556;2022-10-31T06:29:03;18.77;;;10.43;;
8564;SDS011;4320;51.498;6.556;2022-10-31T06:31:28;18.85;;;11.23;;
8564;SDS011;4320;51.498;6.556;2022-10-31T06:33:54;22.88;;;11.95;;
8564;SDS011;4320;51.498;6.556;2022-10-31T06:36:20;14.55;;;10.05;;
8564;SDS011;4320;51.498;6.556;2022-10-31T06:38:45;15.73;;;10.30;;
8564;SDS011;4320;51.498;6.556;2022-10-31T06:41:11;18.73;;;11.65;;
8564;SDS011;4320;51.498;6.556;2022-10-31T06:43:36;17.23;;;10.73;;
8564;SDS011;4320;51.498;6.556;2022-10-31T06:46:03;17.13;;;10.80;;
8564;SDS011;4320;51.498;6.556;2022-10-31T06:48:29;20.80;;;10.63;;
8564;SDS011;4320;51.498;6.556;2022-10-31T06:50:59;18.75;;;10.30;;
8564;SDS011;4320;51.498;6.556;2022-10-31T06:53:25;17.58;;;10.50;;
8564;SDS011;4320;51.498;6.556;2022-10-31T06:55:55;20.40;;;11.20;;
8564;SDS011;4320;51.498;6.556;2022-10-31T06:58:21;17.80;;;11.15;;
8564;SDS011;4320;51.498;6.556;2022-10-31T07:00:47;21.13;;;12.05;;
8564;SDS011;4320;51.498;6.556;2022-10-31T07:03:13;18.48;;;10.57;;
8564;SDS011;4320;51.498;6.556;2022-10-31T07:05:40;18.80;;;11.15;;
8564;SDS011;4320;51.498;6.556;2022-10-31T07:08:07;17.98;;;10.75;;
8564;SDS011;4320;51.498;6.556;2022-10-31T07:10:36;21.13;;;10.75;;
8564;SDS011;4320;51.498;6.556;2022-10-31T07:13:05;17.38;;;10.45;;
8564;SDS011;4320;51.498;6.556;2022-10-31T07:15:36;21.23;;;10.93;;
8564;SDS011;4320;51.498;6.556;2022-10-31T07:18:03;14.00;;;9.57;;
8564;SDS011;4320;51.498;6.556;2022-10-31T07:20:30;16.58;;;10.13;;
8564;SDS011;4320;51.498;6.556;2022-10-31T07:22:56;15.35;;;9.88;;
8564;SDS011;4320;51.498;6.556;2022-10-31T07:25:22;17.63;;;10.30;;
8564;SDS011;4320;51.498;6.556;2022-10-31T07:27:49;18.27;;;11.00;;
8564;SDS011;4320;51.498;6.556;2022-10-31T07:30:15;17.50;;;10.63;;
8564;SDS011;4320;51.498;6.556;2022-10-31T07:32:44;18.05;;;10.80;;
8564;SDS011;4320;51.498;6.556;2022-10-31T07:35:14;16.23;;;9.82;;
8564;SDS011;4320;51.498;6.556;2022-10-31T07:37:48;16.40;;;9.75;;
8564;SDS011;4320;51.498;6.556;2022-10-31T07:40:14;19.50;;;10.70;;
8564;SDS011;4320;51.498;6.556;2022-10-31T07:42:42;17.63;;;10.38;;
8564;SDS011;4320;51.498;6.556;2022-10-31T07:45:10;14.40;;;10.38;;
8564;SDS011;4320;51.498;6.556;2022-10-31T07:47:47;19.30;;;10.45;;
8564;SDS011;4320;51.498;6.556;2022-10-31T07:50:47;16.20;;;10.73;;
8564;SDS011;4320;51.498;6.556;2022-10-31T07:53:11;16.67;;;10.55;;
8564;SDS011;4320;51.498;6.556;2022-10-31T07:55:38;20.90;;;10.80;;
8564;SDS011;4320;51.498;6.556;2022-10-31T07:58:08;17.10;;;9.57;;
8564;SDS011;4320;51.498;6.556;2022-10-31T08:00:41;23.25;;;9.48;;
8564;SDS011;4320;51.498;6.556;2022-10-31T08:03:09;15.25;;;9.48;;
8564;SDS011;4320;51.498;6.556;2022-10-31T08:05:36;16.95;;;10.82;;
8564;SDS011;4320;51.498;6.556;2022-10-31T08:08:03;18.52;;;10.52;;
8564;SDS011;4320;51.498;6.556;2022-10-31T08:10:30;15.68;;;9.55;;
8564;SDS011;4320;51.498;6.556;2022-10-31T08:13:17;16.63;;;9.50;;
8564;SDS011;4320;51.498;6.556;2022-10-31T08:15:42;16.52;;;9.25;;
8564;SDS011;4320;51.498;6.556;2022-10-31T08:18:14;18.73;;;10.77;;
8564;SDS011;4320;51.498;6.556;2022-10-31T08:20:43;20.50;;;10.55;;
8564;SDS011;4320;51.498;6.556;2022-10-31T08:23:09;19.40;;;10.23;;
8564;SDS011;4320;51.498;6.556;2022-10-31T08:25:36;18.73;;;10.07;;
8564;SDS011;4320;51.498;6.556;2022-10-31T08:28:03;19.90;;;10.80;;
8564;SDS011;4320;51.498;6.556;2022-10-31T08:30:30;18.65;;;10.27;;
8564;SDS011;4320;51.498;6.556;2022-10-31T08:35:31;22.67;;;10.38;;
8564;SDS011;4320;51.498;6.556;2022-10-31T08:37:58;16.45;;;10.48;;
8564;SDS011;4320;51.498;6.556;2022-10-31T08:40:24;15.65;;;9.95;;
8564;SDS011;4320;51.498;6.556;2022-10-31T08:43:01;17.88;;;10.45;;
8564;SDS011;4320;51.498;6.556;2022-10-31T08:45:47;20.33;;;10.15;;
8564;SDS011;4320;51.498;6.556;2022-10-31T08:48:15;17.45;;;10.25;;
8564;SDS011;4320;51.498;6.556;2022-10-31T08:50:42;18.35;;;9.90;;
8564;SDS011;4320;51.498;6.556;2022-10-31T08:53:10;29.88;;;11.23;;
8564;SDS011;4320;51.498;6.556;2022-10-31T08:55:41;17.05;;;10.07;;
8564;SDS011;4320;51.498;6.556;2022-10-31T08:58:14;19.20;;;10.73;;
8564;SDS011;4320;51.498;6.556;2022-10-31T09:00:42;18.23;;;11.95;;
8564;SDS011;4320;51.498;6.556;2022-10-31T09:03:10;20.77;;;11.15;;
8564;SDS011;4320;51.498;6.556;2022-10-31T09:05:41;17.48;;;11.80;;
8564;SDS011;4320;51.498;6.556;2022-10-31T09:08:07;17.08;;;11.00;;
8564;SDS011;4320;51.498;6.556;2022-10-31T09:10:34;20.85;;;11.88;;
8564;SDS011;4320;51.498;6.556;2022-10-31T09:13:01;20.15;;;11.15;;
8564;SDS011;4320;51.498;6.556;2022-10-31T09:15:34;22.77;;;12.45;;
8564;SDS011;4320;51.498;6.556;2022-10-31T09:18:00;22.23;;;12.50;;
8564;SDS011;4320;51.498;6.556;2022-10-31T09:20:29;21.45;;;11.68;;
8564;SDS011;4320;51.498;6.556;2022-10-31T09:23:00;19.05;;;11.48;;
8564;SDS011;4320;51.498;6.556;2022-10-31T09:25:27;27.00;;;12.65;;
8564;SDS011;4320;51.498;6.556;2022-10-31T09:27:56;23.85;;;12.32;;
8564;SDS011;4320;51.498;6.556;2022-10-31T09:30:23;24.50;;;12.00;;
8564;SDS011;4320;51.498;6.556;2022-10-31T09:32:59;19.30;;;12.05;;
8564;SDS011;4320;51.498;6.556;2022-10-31T09:35:29;19.38;;;11.32;;
8564;SDS011;4320;51.498;6.556;2022-10-31T09:40:21;26.55;;;12.70;;
8564;SDS011;4320;51.498;6.556;2022-10-31T09:42:58;17.77;;;11.15;;
8564;SDS011;4320;51.498;6.556;2022-10-31T09:48:32;20.70;;;12.25;;
8564;SDS011;4320;51.498;6.556;2022-10-31T09:51:04;26.50;;;13.77;;
8564;SDS011;4320;51.498;6.556;2022-10-31T09:56:04;21.77;;;13.30;;
8564;SDS011;4320;51.498;6.556;2022-10-31T09:58:34;22.33;;;12.18;;
8564;SDS011;4320;51.498;6.556;2022-10-31T10:01:31;23.60;;;11.73;;
8564;SDS011;4320;51.498;6.556;2022-10-31T10:10:01;27.83;;;12.57;;
8564;SDS011;4320;51.498;6.556;2022-10-31T10:26:59;27.20;;;13.00;;
8564;SDS011;4320;51.498;6.556;2022-10-31T10:29:49;23.17;;;12.40;;
8564;SDS011;4320;51.498;6.556;2022-10-31T10:32:24;20.10;;;12.13;;
8564;SDS011;4320;51.498;6.556;2022-10-31T10:35:02;22.17;;;12.70;;
8564;SDS011;4320;51.498;6.556;2022-10-31T10:37:56;25.02;;;13.07;;
8564;SDS011;4320;51.498;6.556;2022-10-31T10:40:25;21.10;;;11.85;;
8564;SDS011;4320;51.498;6.556;2022-10-31T10:42:58;20.33;;;11.90;;
8564;SDS011;4320;51.498;6.556;2022-10-31T10:46:05;22.55;;;12.85;;
8564;SDS011;4320;51.498;6.556;2022-10-31T10:49:16;24.05;;;12.30;;
8564;SDS011;4320;51.498;6.556;2022-10-31T11:00:30;25.55;;;13.13;;
8564;SDS011;4320;51.498;6.556;2022-10-31T11:03:11;20.98;;;13.32;;
8564;SDS011;4320;51.498;6.556;2022-10-31T11:05:42;24.85;;;13.98;;
8564;SDS011;4320;51.498;6.556;2022-10-31T11:08:25;26.38;;;13.50;;
8564;SDS011;4320;51.498;6.556;2022-10-31T11:11:01;26.25;;;13.75;;
8564;SDS011;4320;51.498;6.556;2022-10-31T11:13:37;27.60;;;14.50;;
8564;SDS011;4320;51.498;6.556;2022-10-31T11:18:36;27.23;;;15.30;;
8564;SDS011;4320;51.498;6.556;2022-10-31T11:21:04;30.67;;;15.63;;
8564;SDS011;4320;51.498;6.556;2022-10-31T11:23:31;27.90;;;15.48;;
8564;SDS011;4320;51.498;6.556;2022-10-31T11:28:31;32.40;;;15.50;;
8564;SDS011;4320;51.498;6.556;2022-10-31T11:31:00;29.33;;;15.65;;
8564;SDS011;4320;51.498;6.556;2022-10-31T11:33:35;27.17;;;15.90;;
8564;SDS011;4320;51.498;6.556;2022-10-31T11:36:13;33.42;;;16.48;;
8564;SDS011;4320;51.498;6.556;2022-10-31T11:38:47;31.85;;;15.40;;
8564;SDS011;4320;51.498;6.556;2022-10-31T11:41:14;28.98;;;16.08;;
8564;SDS011;4320;51.498;6.556;2022-10-31T11:43:56;35.08;;;17.67;;
8564;SDS011;4320;51.498;6.556;2022-10-31T11:46:33;35.05;;;17.15;;
8564;SDS011;4320;51.498;6.556;2022-10-31T11:48:59;29.13;;;15.93;;
8564;SDS011;4320;51.498;6.556;2022-10-31T11:51:30;34.20;;;16.67;;
8564;SDS011;4320;51.498;6.556;2022-10-31T11:54:01;32.55;;;16.13;;
8564;SDS011;4320;51.498;6.556;2022-10-31T11:56:38;35.22;;;16.08;;
8564;SDS011;4320;51.498;6.556;2022-10-31T11:59:14;27.92;;;15.32;;
8564;SDS011;4320;51.498;6.556;2022-10-31T12:01:46;33.53;;;16.67;;
8564;SDS011;4320;51.498;6.556;2022-10-31T12:04:14;31.02;;;16.25;;
8564;SDS011;4320;51.498;6.556;2022-10-31T12:06:42;28.67;;;16.83;;
8564;SDS011;4320;51.498;6.556;2022-10-31T12:09:20;31.65;;;16.20;;
8564;SDS011;4320;51.498;6.556;2022-10-31T12:25:52;30.17;;;16.17;;
8564;SDS011;4320;51.498;6.556;2022-10-31T12:45:14;25.30;;;13.43;;
8564;SDS011;4320;51.498;6.556;2022-10-31T12:59:17;19.17;;;10.15;;
8564;SDS011;4320;51.498;6.556;2022-10-31T13:02:02;17.88;;;9.07;;
8564;SDS011;4320;51.498;6.556;2022-10-31T13:05:03;18.00;;;9.80;;
8564;SDS011;4320;51.498;6.556;2022-10-31T13:07:47;15.75;;;9.27;;
8564;SDS011;4320;51.498;6.556;2022-10-31T13:10:30;16.02;;;7.68;;
8564;SDS011;4320;51.498;6.556;2022-10-31T13:13:24;21.13;;;8.20;;
8564;SDS011;4320;51.498;6.556;2022-10-31T13:16:00;13.77;;;7.45;;
8564;SDS011;4320;51.498;6.556;2022-10-31T13:18:39;13.68;;;7.20;;
8564;SDS011;4320;51.498;6.556;2022-10-31T13:21:11;12.05;;;6.55;;
8564;SDS011;4320;51.498;6.556;2022-10-31T13:23:43;13.55;;;6.97;;
8564;SDS011;4320;51.498;6.556;2022-10-31T13:26:14;14.07;;;6.68;;
8564;SDS011;4320;51.498;6.556;2022-10-31T13:28:48;11.07;;;6.70;;
8564;SDS011;4320;51.498;6.556;2022-10-31T13:31:22;18.98;;;7.88;;
8564;SDS011;4320;51.498;6.556;2022-10-31T13:34:01;11.30;;;7.35;;
8564;SDS011;4320;51.498;6.556;2022-10-31T13:36:42;10.38;;;6.65;;
8564;SDS011;4320;51.498;6.556;2022-10-31T13:39:20;13.50;;;7.05;;
8564;SDS011;4320;51.498;6.556;2022-10-31T13:41:53;15.98;;;6.63;;
8564;SDS011;4320;51.498;6.556;2022-10-31T13:44:39;13.10;;;6.05;;
8564;SDS011;4320;51.498;6.556;2022-10-31T13:47:23;15.30;;;5.68;;
8564;SDS011;4320;51.498;6.556;2022-10-31T13:50:05;11.23;;;5.07;;
8564;SDS011;4320;51.498;6.556;2022-10-31T13:52:45;10.88;;;5.72;;
8564;SDS011;4320;51.498;6.556;2022-10-31T14:00:44;10.38;;;4.93;;
8564;SDS011;4320;51.498;6.556;2022-10-31T14:03:17;9.77;;;4.80;;
8564;SDS011;4320;51.498;6.556;2022-10-31T14:05:51;6.50;;;4.47;;
8564;SDS011;4320;51.498;6.556;2022-10-31T14:08:19;7.70;;;4.68;;
8564;SDS011;4320;51.498;6.556;2022-10-31T14:10:49;8.10;;;4.85;;
8564;SDS011;4320;51.498;6.556;2022-10-31T14:16:29;12.52;;;4.88;;
8564;SDS011;4320;51.498;6.556;2022-10-31T14:19:06;12.10;;;5.38;;
8564;SDS011;4320;51.498;6.556;2022-10-31T14:21:45;12.23;;;5.65;;
8564;SDS011;4320;51.498;6.556;2022-10-31T14:24:13;12.30;;;5.82;;
8564;SDS011;4320;51.498;6.556;2022-10-31T14:29:25;8.00;;;4.32;;
8564;SDS011;4320;51.498;6.556;2022-10-31T14:34:42;11.77;;;5.43;;
8564;SDS011;4320;51.498;6.556;2022-10-31T14:37:12;11.63;;;3.70;;
8564;SDS011;4320;51.498;6.556;2022-10-31T14:42:32;9.70;;;4.32;;
8564;SDS011;4320;51.498;6.556;2022-10-31T14:45:25;13.15;;;4.00;;
8564;SDS011;4320;51.498;6.556;2022-10-31T14:50:47;8.23;;;3.58;;
8564;SDS011;4320;51.498;6.556;2022-10-31T14:55:51;9.57;;;3.55;;
8564;SDS011;4320;51.498;6.556;2022-10-31T14:58:23;9.10;;;3.95;;
8564;SDS011;4320;51.498;6.556;2022-10-31T15:01:00;7.80;;;3.85;;
8564;SDS011;4320;51.498;6.556;2022-10-31T15:03:39;8.75;;;3.72;;
8564;SDS011;4320;51.498;6.556;2022-10-31T15:06:13;7.35;;;4.00;;
8564;SDS011;4320;51.498;6.556;2022-10-31T15:08:44;7.90;;;3.80;;
8564;SDS011;4320;51.498;6.556;2022-10-31T15:11:13;8.95;;;4.25;;
8564;SDS011;4320;51.498;6.556;2022-10-31T15:13:52;6.53;;;3.60;;
8564;SDS011;4320;51.498;6.556;2022-10-31T15:16:40;10.48;;;3.28;;
8564;SDS011;4320;51.498;6.556;2022-10-31T15:19:10;9.10;;;3.33;;
8564;SDS011;4320;51.498;6.556;2022-10-31T15:21:41;12.10;;;3.95;;
8564;SDS011;4320;51.498;6.556;2022-10-31T15:24:11;7.57;;;3.42;;
8564;SDS011;4320;51.498;6.556;2022-10-31T15:26:46;6.10;;;3.45;;
8564;SDS011;4320;51.498;6.556;2022-10-31T15:29:16;9.88;;;4.20;;
8564;SDS011;4320;51.498;6.556;2022-10-31T15:31:54;11.13;;;3.30;;
8564;SDS011;4320;51.498;6.556;2022-10-31T15:36:55;16.83;;;3.75;;
8564;SDS011;4320;51.498;6.556;2022-10-31T15:39:21;12.45;;;4.07;;
8564;SDS011;4320;51.498;6.556;2022-10-31T15:47:31;13.75;;;3.70;;
8564;SDS011;4320;51.498;6.556;2022-10-31T15:49:49;8.05;;;3.78;;
8564;SDS011;4320;51.498;6.556;2022-10-31T15:52:37;6.53;;;3.42;;
8564;SDS011;4320;51.498;6.556;2022-10-31T15:57:40;10.85;;;3.70;;
8564;SDS011;4320;51.498;6.556;2022-10-31T16:00:25;8.10;;;3.42;;
8564;SDS011;4320;51.498;6.556;2022-10-31T16:03:05;14.18;;;3.97;;
8564;SDS011;4320;51.498;6.556;2022-10-31T16:05:38;9.60;;;3.58;;
8564;SDS011;4320;51.498;6.556;2022-10-31T16:10:55;7.78;;;3.88;;
8564;SDS011;4320;51.498;6.556;2022-10-31T16:13:29;10.57;;;3.63;;
8564;SDS011;4320;51.498;6.556;2022-10-31T16:15:59;14.05;;;4.30;;
8564;SDS011;4320;51.498;6.556;2022-10-31T16:18:27;9.43;;;3.60;;
8564;SDS011;4320;51.498;6.556;2022-10-31T16:20:59;9.32;;;3.08;;
8564;SDS011;4320;51.498;6.556;2022-10-31T16:23:26;9.40;;;3.28;;
8564;SDS011;4320;51.498;6.556;2022-10-31T16:25:52;12.55;;;4.13;;
8564;SDS011;4320;51.498;6.556;2022-10-31T16:28:19;8.45;;;3.88;;
8564;SDS011;4320;51.498;6.556;2022-10-31T16:30:50;8.05;;;3.60;;
8564;SDS011;4320;51.498;6.556;2022-10-31T16:35:52;7.80;;;3.70;;
8564;SDS011;4320;51.498;6.556;2022-10-31T16:38:18;13.70;;;3.88;;
8564;SDS011;4320;51.498;6.556;2022-10-31T16:40:44;9.50;;;3.80;;
8564;SDS011;4320;51.498;6.556;2022-10-31T16:43:12;10.10;;;3.90;;
8564;SDS011;4320;51.498;6.556;2022-10-31T16:45:43;10.30;;;4.35;;
8564;SDS011;4320;51.498;6.556;2022-10-31T16:48:14;10.07;;;3.95;;
8564;SDS011;4320;51.498;6.556;2022-10-31T16:50:42;10.45;;;4.68;;
8564;SDS011;4320;51.498;6.556;2022-10-31T16:53:10;9.68;;;4.68;;
8564;SDS011;4320;51.498;6.556;2022-10-31T16:55:46;9.63;;;4.30;;
8564;SDS011;4320;51.498;6.556;2022-10-31T16:58:32;10.40;;;4.20;;
8564;SDS011;4320;51.498;6.556;2022-10-31T17:01:00;13.57;;;4.38;;
8564;SDS011;4320;51.498;6.556;2022-10-31T17:03:28;9.82;;;4.60;;
8564;SDS011;4320;51.498;6.556;2022-10-31T17:05:55;10.13;;;4.47;;
8564;SDS011;4320;51.498;6.556;2022-10-31T17:08:21;11.23;;;4.30;;
8564;SDS011;4320;51.498;6.556;2022-10-31T17:10:50;12.95;;;4.75;;
8564;SDS011;4320;51.498;6.556;2022-10-31T17:13:18;16.98;;;4.82;;
8564;SDS011;4320;51.498;6.556;2022-10-31T17:15:48;13.23;;;5.57;;
8564;SDS011;4320;51.498;6.556;2022-10-31T17:18:16;8.57;;;5.07;;
8564;SDS011;4320;51.498;6.556;2022-10-31T17:20:42;12.75;;;5.25;;
8564;SDS011;4320;51.498;6.556;2022-10-31T17:23:12;13.30;;;5.15;;
8564;SDS011;4320;51.498;6.556;2022-10-31T17:25:39;10.05;;;4.88;;
8564;SDS011;4320;51.498;6.556;2022-10-31T17:28:05;15.10;;;4.65;;
8564;SDS011;4320;51.498;6.556;2022-10-31T17:30:31;10.80;;;5.13;;
8564;SDS011;4320;51.498;6.556;2022-10-31T17:32:58;9.82;;;4.43;;
8564;SDS011;4320;51.498;6.556;2022-10-31T17:35:24;10.05;;;4.50;;
8564;SDS011;4320;51.498;6.556;2022-10-31T17:37:49;12.65;;;4.25;;
8564;SDS011;4320;51.498;6.556;2022-10-31T17:40:16;8.73;;;3.85;;
8564;SDS011;4320;51.498;6.556;2022-10-31T17:42:50;11.13;;;3.85;;
8564;SDS011;4320;51.498;6.556;2022-10-31T17:45:17;6.22;;;3.80;;
8564;SDS011;4320;51.498;6.556;2022-10-31T17:47:45;10.57;;;3.92;;